createdAt,value
2019-05-15T00:00:43.692Z,74.50
2019-05-15T00:05:49.512Z,73.90
2019-05-15T00:10:54.545Z,74.40
2019-05-15T00:15:59.067Z,74.40
2019-05-15T00:21:02.224Z,76.70
2019-05-15T00:26:06.202Z,75.70
2019-05-15T00:31:11.041Z,76.50
2019-05-15T00:36:15.392Z,77.40
2019-05-15T00:41:19.647Z,78.80
2019-05-15T00:46:23.571Z,77.70
2019-05-15T00:51:28.509Z,77.80
2019-05-15T00:56:32.692Z,77.00
2019-05-15T01:01:38.265Z,77.10
2019-05-15T01:06:42.476Z,78.30
2019-05-15T01:11:48.756Z,76.70
2019-05-15T01:16:52.683Z,77.10
2019-05-15T01:21:58.706Z,76.60
2019-05-15T01:27:04.483Z,76.60
2019-05-15T01:32:08.549Z,77.30
2019-05-15T01:37:12.754Z,76.70
2019-05-15T01:42:18.646Z,77.60
2019-05-15T01:47:23.124Z,77.10
2019-05-15T01:52:27.940Z,77.20
2019-05-15T01:57:31.912Z,78.40
2019-05-15T02:02:38.836Z,79.80
2019-05-15T02:07:42.174Z,78.30
2019-05-15T02:12:48.042Z,77.80
2019-05-15T02:17:51.787Z,77.80
2019-05-15T02:22:56.099Z,77.50
2019-05-15T02:28:00.139Z,80.60
2019-05-15T02:33:04.217Z,80.50
2019-05-15T02:38:10.348Z,79.80
2019-05-15T02:43:14.646Z,78.50
2019-05-15T02:48:19.953Z,78.50
2019-05-15T02:53:24.401Z,78.90
2019-05-15T02:58:29.418Z,79.00
2019-05-15T03:03:33.738Z,79.00
2019-05-15T03:08:39.864Z,81.10
2019-05-15T03:13:43.530Z,81.00
2019-05-15T03:18:50.462Z,79.60
2019-05-15T03:23:53.392Z,79.60
2019-05-15T03:28:59.022Z,82.90
2019-05-15T03:34:04.066Z,81.60
2019-05-15T03:39:09.700Z,80.90
2019-05-15T03:44:14.687Z,79.90
2019-05-15T03:49:19.987Z,79.80
2019-05-15T03:54:24.451Z,80.60
2019-05-15T03:59:29.399Z,80.20
2019-05-15T04:04:34.418Z,88.90
2019-05-15T04:09:38.872Z,85.70
2019-05-15T04:14:43.484Z,85.20
2019-05-15T04:19:49.931Z,84.30
2019-05-15T04:24:54.836Z,81.40
2019-05-15T04:29:59.262Z,80.00
2019-05-15T04:35:03.684Z,77.30
2019-05-15T04:40:09.643Z,76.60
2019-05-15T04:45:14.114Z,74.60
2019-05-15T04:50:21.000Z,72.40
2019-05-15T04:55:25.107Z,70.30
2019-05-15T05:00:50.228Z,68.50
2019-05-15T05:05:54.496Z,66.70
2019-05-15T05:10:59.402Z,61.60
2019-05-15T05:16:03.731Z,58.10
2019-05-15T05:21:07.858Z,55.70
2019-05-15T05:26:12.357Z,52.30
2019-05-15T05:31:19.068Z,50.30
2019-05-15T05:36:22.549Z,50.80
2019-05-15T05:41:28.069Z,49.90
2019-05-15T05:46:32.548Z,49.60
2019-05-15T05:51:38.702Z,48.80
2019-05-15T05:56:42.985Z,48.80
2019-05-15T06:01:48.490Z,47.80
2019-05-15T06:07:05.910Z,45.50
2019-05-15T06:11:58.446Z,45.00
2019-05-15T06:17:04.832Z,43.70
2019-05-15T06:22:08.942Z,43.10
2019-05-15T06:27:13.101Z,41.60
2019-05-15T06:32:19.428Z,42.20
2019-05-15T06:37:23.361Z,40.20
2019-05-15T06:42:28.419Z,39.70
2019-05-15T06:47:32.783Z,39.60
2019-05-15T06:52:39.995Z,38.70
2019-05-15T06:57:44.102Z,38.90
2019-05-15T07:02:48.725Z,39.60
2019-05-15T07:07:52.419Z,37.40
2019-05-15T07:12:58.564Z,38.60
2019-05-15T07:18:04.751Z,36.60
2019-05-15T07:23:09.519Z,38.40
2019-05-15T07:28:13.959Z,36.60
2019-05-15T07:33:28.100Z,36.20
2019-05-15T07:38:25.001Z,36.80
2019-05-15T07:43:30.392Z,34.30
2019-05-15T07:48:34.759Z,35.00
2019-05-15T07:53:39.283Z,33.40
2019-05-15T07:59:07.920Z,33.00
2019-05-15T08:04:25.096Z,34.10
2019-05-15T08:09:17.981Z,33.30
2019-05-15T08:14:28.893Z,32.10
2019-05-15T08:19:30.741Z,31.50
2019-05-15T08:24:35.195Z,32.20
2019-05-15T08:29:42.590Z,31.80
2019-05-15T08:34:49.240Z,32.30
2019-05-15T08:39:53.731Z,34.10
2019-05-15T08:45:00.928Z,31.70
2019-05-15T08:50:08.842Z,31.70
2019-05-15T08:55:14.032Z,31.10
2019-05-15T09:00:21.219Z,32.40
2019-05-15T09:05:28.141Z,32.70
2019-05-15T09:10:31.848Z,31.50
2019-05-15T09:15:41.503Z,32.40
2019-05-15T09:20:48.797Z,31.10
2019-05-15T09:25:52.523Z,33.50
2019-05-15T09:30:59.112Z,31.80
2019-05-15T09:36:03.476Z,32.50
2019-05-15T09:41:08.944Z,30.50
2019-05-15T09:46:13.468Z,31.40
2019-05-15T09:51:18.725Z,30.70
2019-05-15T09:56:23.190Z,31.40
2019-05-15T10:01:28.487Z,30.70
2019-05-15T10:06:33.107Z,32.60
2019-05-15T10:11:38.235Z,31.30
2019-05-15T10:16:43.202Z,31.80
2019-05-15T10:21:53.062Z,30.90
2019-05-15T10:26:52.988Z,31.50
2019-05-15T10:31:57.461Z,31.50
2019-05-15T10:37:01.535Z,29.80
2019-05-15T10:42:08.103Z,31.30
2019-05-15T10:47:12.087Z,31.60
2019-05-15T10:52:18.001Z,30.40
2019-05-15T10:57:22.391Z,30.20
2019-05-15T11:02:28.842Z,30.00
2019-05-15T11:07:33.148Z,31.10
2019-05-15T11:12:37.336Z,32.00
2019-05-15T11:17:41.503Z,32.60
2019-05-15T11:22:46.241Z,30.80
2019-05-15T11:27:49.511Z,30.10
2019-05-15T11:32:54.451Z,30.70
2019-05-15T11:38:00.733Z,33.00
2019-05-15T11:43:04.885Z,32.10
2019-05-15T11:48:09.279Z,33.00
2019-05-15T11:53:13.389Z,32.60
2019-05-15T11:58:19.073Z,30.60
2019-05-15T12:03:24.967Z,30.00
2019-05-15T12:08:30.831Z,32.20
2019-05-15T12:13:35.186Z,34.20
2019-05-15T12:18:39.219Z,34.60
2019-05-15T12:23:43.735Z,35.90
2019-05-15T12:28:48.949Z,34.10
2019-05-15T12:33:52.730Z,33.00
2019-05-15T12:38:57.202Z,35.70
2019-05-15T12:59:40.489Z,37.30
2019-05-15T13:04:31.003Z,37.60
2019-05-15T13:09:35.298Z,35.60
2019-05-15T13:14:41.694Z,36.90
2019-05-15T13:19:48.352Z,35.90
2019-05-15T13:24:53.169Z,35.90
2019-05-15T13:29:58.264Z,36.80
2019-05-15T13:35:05.203Z,36.80
2019-05-15T13:40:12.378Z,39.30
2019-05-15T13:45:18.274Z,35.30
2019-05-15T13:50:22.744Z,37.60
2019-05-15T13:55:36.706Z,35.10
2019-05-15T14:00:39.279Z,36.40
2019-05-15T14:05:49.531Z,39.50
2019-05-15T14:10:52.518Z,37.00
2019-05-15T14:16:03.835Z,35.90
2019-05-15T14:21:08.884Z,38.10
2019-05-15T14:26:23.974Z,36.40
2019-05-15T14:31:36.539Z,36.40
2019-05-15T14:36:43.212Z,37.40
2019-05-15T14:41:49.212Z,38.20
2019-05-15T14:46:55.496Z,37.50
2019-05-15T14:52:08.465Z,38.50
2019-05-15T14:57:05.231Z,39.40
2019-05-15T15:02:09.350Z,38.50
2019-05-15T15:07:13.420Z,40.60
2019-05-15T15:12:20.406Z,37.60
2019-05-15T15:17:24.831Z,38.80
2019-05-15T15:22:34.401Z,36.00
2019-05-15T15:27:39.003Z,35.40
2019-05-15T15:32:44.046Z,36.80
2019-05-15T15:37:50.283Z,35.80
2019-05-15T15:43:00.585Z,37.70
2019-05-15T15:48:04.677Z,38.10
2019-05-15T15:53:09.218Z,38.60
2019-05-15T15:58:14.239Z,38.00
2019-05-15T16:03:20.816Z,36.90
2019-05-15T16:08:28.543Z,38.70
2019-05-15T16:13:32.932Z,37.70
2019-05-15T16:18:38.578Z,38.10
2019-05-15T16:23:42.702Z,38.80
2019-05-15T16:28:48.958Z,39.70
2019-05-15T16:33:53.573Z,39.10
2019-05-15T16:39:07.136Z,38.20
2019-05-15T16:44:05.054Z,38.60
2019-05-15T16:49:09.127Z,38.60
2019-05-15T16:54:13.536Z,39.00
2019-05-15T16:59:18.234Z,39.70
2019-05-15T17:04:22.465Z,40.60
2019-05-15T17:09:28.116Z,41.30
2019-05-15T17:14:32.340Z,40.90
2019-05-15T17:19:37.647Z,40.90
2019-05-15T17:24:41.757Z,39.90
2019-05-15T17:29:48.884Z,40.20
2019-05-15T17:34:58.518Z,41.90
2019-05-15T17:40:00.198Z,42.80
2019-05-15T17:45:04.543Z,43.10
2019-05-15T17:50:10.404Z,43.60
2019-05-15T17:55:14.598Z,42.80
2019-05-15T18:00:20.094Z,42.80
2019-05-15T18:05:25.192Z,43.40
2019-05-15T18:10:29.711Z,44.20
2019-05-15T18:15:38.769Z,44.50
2019-05-15T18:20:42.883Z,45.30
2019-05-15T18:25:49.193Z,46.00
2019-05-15T18:30:53.850Z,47.10
2019-05-15T18:35:59.116Z,47.30
2019-05-15T18:41:03.897Z,48.20
2019-05-15T18:46:09.047Z,48.70
2019-05-15T18:51:13.359Z,49.50
2019-05-15T18:56:18.710Z,50.50
2019-05-15T19:01:23.480Z,50.70
2019-05-15T19:06:29.430Z,51.30
2019-05-15T19:11:33.764Z,51.20
2019-05-15T19:16:39.288Z,51.80
2019-05-15T19:21:43.702Z,52.70
2019-05-15T19:27:09.040Z,52.30
2019-05-15T19:32:14.199Z,52.00
2019-05-15T19:37:18.533Z,52.30
2019-05-15T19:42:25.982Z,53.00
2019-05-15T19:47:30.318Z,54.10
2019-05-15T19:52:34.451Z,54.60
2019-05-15T19:57:41.636Z,54.60
2019-05-15T20:02:48.580Z,54.30
2019-05-15T20:07:52.608Z,53.90
2019-05-15T20:12:58.456Z,53.70
2019-05-15T20:19:23.077Z,55.00
2019-05-15T20:23:18.505Z,54.90
2019-05-15T20:28:22.579Z,55.90
2019-05-15T20:33:28.564Z,55.80
2019-05-15T20:38:33.944Z,56.70
2019-05-15T20:43:38.516Z,57.40
2019-05-15T20:49:01.295Z,58.30
2019-05-15T20:54:05.775Z,57.70
2019-05-15T20:59:09.920Z,58.60
2019-05-15T21:04:20.514Z,58.00
2019-05-15T21:09:20.481Z,58.00
2019-05-15T21:14:25.552Z,58.20
2019-05-15T21:19:29.835Z,58.70
2019-05-15T21:24:34.444Z,58.60
2019-05-15T21:29:40.577Z,58.20
2019-05-15T21:34:45.086Z,58.20
2019-05-15T21:39:49.074Z,58.10
2019-05-15T21:44:54.108Z,59.00
2019-05-15T21:49:58.652Z,59.80
2019-05-15T21:55:02.761Z,60.30
2019-05-15T22:00:13.063Z,63.60
2019-05-15T22:05:19.039Z,62.10
2019-05-15T22:10:22.976Z,61.70
2019-05-15T22:15:29.445Z,61.70
2019-05-15T22:20:33.862Z,62.20
2019-05-15T22:25:38.562Z,61.90
2019-05-15T22:30:43.095Z,61.80
2019-05-15T22:35:48.798Z,61.30
2019-05-15T22:40:53.239Z,61.80
2019-05-15T22:45:58.815Z,62.00
2019-05-15T22:51:03.619Z,61.70
2019-05-15T22:56:09.329Z,61.20
2019-05-15T23:01:14.224Z,61.00
2019-05-15T23:06:18.375Z,61.60
2019-05-15T23:11:24.643Z,62.30
2019-05-15T23:16:28.651Z,61.70
2019-05-15T23:21:33.082Z,63.50
2019-05-15T23:26:38.763Z,63.20
2019-05-15T23:31:43.520Z,62.80
2019-05-15T23:36:48.352Z,64.10
2019-05-15T23:41:52.494Z,63.50
2019-05-15T23:46:59.536Z,63.50
2019-05-15T23:52:04.149Z,63.60
2019-05-15T23:57:08.877Z,62.80
